sensor_id;sensor_type;location;lat;lon;timestamp;P1;durP1;ratioP1;P2;durP2;ratioP2
71095;SDS011;58753;49.440;11.126;2022-11-03T00:02:14;7.63;;;2.13;;
71095;SDS011;58753;49.440;11.126;2022-11-03T00:04:40;4.63;;;1.80;;
71095;SDS011;58753;49.440;11.126;2022-11-03T00:07:05;8.30;;;1.90;;
71095;SDS011;58753;49.440;11.126;2022-11-03T00:09:30;7.83;;;2.50;;
71095;SDS011;58753;49.440;11.126;2022-11-03T00:11:56;6.43;;;1.73;;
71095;SDS011;58753;49.440;11.126;2022-11-03T00:14:22;4.50;;;1.53;;
71095;SDS011;58753;49.440;11.126;2022-11-03T00:16:47;5.23;;;1.63;;
71095;SDS011;58753;49.440;11.126;2022-11-03T00:19:12;6.07;;;1.40;;
71095;SDS011;58753;49.440;11.126;2022-11-03T00:21:40;7.88;;;1.73;;
71095;SDS011;58753;49.440;11.126;2022-11-03T00:24:05;3.03;;;1.50;;
71095;SDS011;58753;49.440;11.126;2022-11-03T00:26:32;9.25;;;1.65;;
71095;SDS011;58753;49.440;11.126;2022-11-03T00:28:59;3.80;;;1.20;;
71095;SDS011;58753;49.440;11.126;2022-11-03T00:31:30;9.57;;;1.58;;
71095;SDS011;58753;49.440;11.126;2022-11-03T00:33:58;6.70;;;1.57;;
71095;SDS011;58753;49.440;11.126;2022-11-03T00:36:25;6.90;;;1.63;;
71095;SDS011;58753;49.440;11.126;2022-11-03T00:38:55;5.55;;;1.38;;
71095;SDS011;58753;49.440;11.126;2022-11-03T00:41:21;5.67;;;1.47;;
71095;SDS011;58753;49.440;11.126;2022-11-03T00:43:47;4.13;;;1.63;;
71095;SDS011;58753;49.440;11.126;2022-11-03T00:46:13;5.43;;;1.83;;
71095;SDS011;58753;49.440;11.126;2022-11-03T00:48:39;7.43;;;2.43;;
71095;SDS011;58753;49.440;11.126;2022-11-03T00:53:34;2.58;;;1.42;;
71095;SDS011;58753;49.440;11.126;2022-11-03T00:56:05;4.30;;;1.83;;
71095;SDS011;58753;49.440;11.126;2022-11-03T00:58:31;6.67;;;2.17;;
71095;SDS011;58753;49.440;11.126;2022-11-03T01:01:02;6.28;;;1.52;;
71095;SDS011;58753;49.440;11.126;2022-11-03T01:03:30;6.53;;;2.28;;
71095;SDS011;58753;49.440;11.126;2022-11-03T01:05:56;5.95;;;1.40;;
71095;SDS011;58753;49.440;11.126;2022-11-03T01:08:40;5.18;;;1.52;;
71095;SDS011;58753;49.440;11.126;2022-11-03T01:11:13;3.17;;;1.80;;
71095;SDS011;58753;49.440;11.126;2022-11-03T01:13:59;7.40;;;1.40;;
71095;SDS011;58753;49.440;11.126;2022-11-03T01:16:24;9.20;;;2.27;;
71095;SDS011;58753;49.440;11.126;2022-11-03T01:18:50;7.18;;;1.52;;
71095;SDS011;58753;49.440;11.126;2022-11-03T01:21:16;10.33;;;1.07;;
71095;SDS011;58753;49.440;11.126;2022-11-03T01:23:41;3.67;;;1.50;;
71095;SDS011;58753;49.440;11.126;2022-11-03T01:26:08;4.10;;;1.97;;
71095;SDS011;58753;49.440;11.126;2022-11-03T01:28:36;5.33;;;1.63;;
71095;SDS011;58753;49.440;11.126;2022-11-03T01:31:24;4.30;;;1.40;;
71095;SDS011;58753;49.440;11.126;2022-11-03T01:33:49;4.68;;;1.58;;
71095;SDS011;58753;49.440;11.126;2022-11-03T01:36:16;8.02;;;1.80;;
71095;SDS011;58753;49.440;11.126;2022-11-03T01:38:42;7.65;;;1.30;;
71095;SDS011;58753;49.440;11.126;2022-11-03T01:41:10;4.63;;;1.23;;
71095;SDS011;58753;49.440;11.126;2022-11-03T01:43:38;3.85;;;1.23;;
71095;SDS011;58753;49.440;11.126;2022-11-03T01:46:11;4.95;;;1.63;;
71095;SDS011;58753;49.440;11.126;2022-11-03T01:48:44;25.23;;;2.10;;
71095;SDS011;58753;49.440;11.126;2022-11-03T01:51:13;4.65;;;1.45;;
71095;SDS011;58753;49.440;11.126;2022-11-03T01:53:41;6.05;;;1.90;;
71095;SDS011;58753;49.440;11.126;2022-11-03T01:56:09;8.65;;;1.15;;
71095;SDS011;58753;49.440;11.126;2022-11-03T01:58:37;8.30;;;2.47;;
71095;SDS011;58753;49.440;11.126;2022-11-03T02:01:05;7.63;;;1.70;;
71095;SDS011;58753;49.440;11.126;2022-11-03T02:03:32;3.72;;;1.55;;
71095;SDS011;58753;49.440;11.126;2022-11-03T02:06:01;6.90;;;1.35;;
71095;SDS011;58753;49.440;11.126;2022-11-03T02:09:10;3.78;;;1.50;;
71095;SDS011;58753;49.440;11.126;2022-11-03T02:11:20;4.03;;;1.38;;
71095;SDS011;58753;49.440;11.126;2022-11-03T02:14:09;5.47;;;1.43;;
71095;SDS011;58753;49.440;11.126;2022-11-03T02:16:36;5.88;;;1.70;;
71095;SDS011;58753;49.440;11.126;2022-11-03T02:19:02;3.85;;;1.42;;
71095;SDS011;58753;49.440;11.126;2022-11-03T02:21:32;4.35;;;1.30;;
71095;SDS011;58753;49.440;11.126;2022-11-03T02:24:17;6.47;;;1.87;;
71095;SDS011;58753;49.440;11.126;2022-11-03T02:27:06;4.18;;;1.63;;
71095;SDS011;58753;49.440;11.126;2022-11-03T02:29:31;5.23;;;2.50;;
71095;SDS011;58753;49.440;11.126;2022-11-03T02:31:57;9.10;;;1.42;;
71095;SDS011;58753;49.440;11.126;2022-11-03T02:37:16;6.03;;;2.13;;
71095;SDS011;58753;49.440;11.126;2022-11-03T02:39:46;5.05;;;1.80;;
71095;SDS011;58753;49.440;11.126;2022-11-03T02:42:15;6.45;;;1.42;;
71095;SDS011;58753;49.440;11.126;2022-11-03T02:44:43;4.43;;;1.27;;
71095;SDS011;58753;49.440;11.126;2022-11-03T02:47:11;7.03;;;1.88;;
71095;SDS011;58753;49.440;11.126;2022-11-03T02:49:38;6.77;;;1.73;;
71095;SDS011;58753;49.440;11.126;2022-11-03T02:52:05;4.72;;;1.75;;
71095;SDS011;58753;49.440;11.126;2022-11-03T02:54:38;7.05;;;1.92;;
71095;SDS011;58753;49.440;11.126;2022-11-03T02:57:17;5.80;;;2.20;;
71095;SDS011;58753;49.440;11.126;2022-11-03T03:00:04;4.80;;;1.63;;
71095;SDS011;58753;49.440;11.126;2022-11-03T03:02:33;5.37;;;1.70;;
71095;SDS011;58753;49.440;11.126;2022-11-03T03:05:04;3.05;;;1.60;;
71095;SDS011;58753;49.440;11.126;2022-11-03T03:07:38;5.32;;;1.33;;
71095;SDS011;58753;49.440;11.126;2022-11-03T03:10:11;5.60;;;1.90;;
71095;SDS011;58753;49.440;11.126;2022-11-03T03:12:42;5.40;;;1.50;;
71095;SDS011;58753;49.440;11.126;2022-11-03T03:18:21;5.60;;;1.80;;
71095;SDS011;58753;49.440;11.126;2022-11-03T03:20:54;5.95;;;2.05;;
71095;SDS011;58753;49.440;11.126;2022-11-03T03:23:25;3.90;;;1.77;;
71095;SDS011;58753;49.440;11.126;2022-11-03T03:25:57;6.07;;;2.15;;
71095;SDS011;58753;49.440;11.126;2022-11-03T03:28:29;4.80;;;1.47;;
71095;SDS011;58753;49.440;11.126;2022-11-03T03:30:59;5.22;;;2.38;;
71095;SDS011;58753;49.440;11.126;2022-11-03T03:33:26;5.18;;;2.20;;
71095;SDS011;58753;49.440;11.126;2022-11-03T03:35:54;7.72;;;2.03;;
71095;SDS011;58753;49.440;11.126;2022-11-03T03:38:22;3.67;;;1.58;;
71095;SDS011;58753;49.440;11.126;2022-11-03T03:40:52;3.97;;;2.30;;
71095;SDS011;58753;49.440;11.126;2022-11-03T03:43:21;6.15;;;1.52;;
71095;SDS011;58753;49.440;11.126;2022-11-03T03:45:47;6.63;;;1.58;;
71095;SDS011;58753;49.440;11.126;2022-11-03T03:48:15;6.88;;;1.75;;
71095;SDS011;58753;49.440;11.126;2022-11-03T03:50:41;6.33;;;2.60;;
71095;SDS011;58753;49.440;11.126;2022-11-03T03:53:10;3.40;;;1.85;;
71095;SDS011;58753;49.440;11.126;2022-11-03T03:55:41;3.50;;;1.38;;
71095;SDS011;58753;49.440;11.126;2022-11-03T03:58:09;8.68;;;2.60;;
71095;SDS011;58753;49.440;11.126;2022-11-03T04:00:37;10.55;;;1.90;;
71095;SDS011;58753;49.440;11.126;2022-11-03T04:03:04;9.10;;;2.07;;
71095;SDS011;58753;49.440;11.126;2022-11-03T04:05:30;4.70;;;1.90;;
71095;SDS011;58753;49.440;11.126;2022-11-03T04:07:55;4.80;;;1.80;;
71095;SDS011;58753;49.440;11.126;2022-11-03T04:10:22;4.83;;;2.20;;
71095;SDS011;58753;49.440;11.126;2022-11-03T04:12:48;6.15;;;1.75;;
71095;SDS011;58753;49.440;11.126;2022-11-03T04:15:33;4.05;;;2.10;;
71095;SDS011;58753;49.440;11.126;2022-11-03T04:18:25;11.88;;;2.30;;
71095;SDS011;58753;49.440;11.126;2022-11-03T04:21:11;4.43;;;1.98;;
71095;SDS011;58753;49.440;11.126;2022-11-03T04:23:56;4.83;;;1.57;;
71095;SDS011;58753;49.440;11.126;2022-11-03T04:26:22;9.15;;;2.05;;
71095;SDS011;58753;49.440;11.126;2022-11-03T04:28:48;5.22;;;2.03;;
71095;SDS011;58753;49.440;11.126;2022-11-03T04:31:15;4.93;;;1.60;;
71095;SDS011;58753;49.440;11.126;2022-11-03T04:33:42;3.85;;;1.60;;
71095;SDS011;58753;49.440;11.126;2022-11-03T04:36:14;6.38;;;2.53;;
71095;SDS011;58753;49.440;11.126;2022-11-03T04:38:45;4.22;;;1.35;;
71095;SDS011;58753;49.440;11.126;2022-11-03T04:41:17;5.97;;;1.90;;
71095;SDS011;58753;49.440;11.126;2022-11-03T04:43:45;7.20;;;1.80;;
71095;SDS011;58753;49.440;11.126;2022-11-03T04:46:15;6.47;;;1.90;;
71095;SDS011;58753;49.440;11.126;2022-11-03T04:48:42;5.23;;;1.80;;
71095;SDS011;58753;49.440;11.126;2022-11-03T04:51:18;5.57;;;1.98;;
71095;SDS011;58753;49.440;11.126;2022-11-03T04:54:03;5.72;;;1.60;;
71095;SDS011;58753;49.440;11.126;2022-11-03T04:56:35;5.97;;;1.50;;
71095;SDS011;58753;49.440;11.126;2022-11-03T04:59:00;7.33;;;1.73;;
71095;SDS011;58753;49.440;11.126;2022-11-03T05:01:26;4.22;;;1.35;;
71095;SDS011;58753;49.440;11.126;2022-11-03T05:03:53;5.25;;;1.35;;
71095;SDS011;58753;49.440;11.126;2022-11-03T05:06:20;3.70;;;1.73;;
71095;SDS011;58753;49.440;11.126;2022-11-03T05:08:59;3.55;;;1.30;;
71095;SDS011;58753;49.440;11.126;2022-11-03T05:11:33;9.82;;;1.95;;
71095;SDS011;58753;49.440;11.126;2022-11-03T05:14:02;5.55;;;1.63;;
71095;SDS011;58753;49.440;11.126;2022-11-03T05:16:31;7.45;;;1.75;;
71095;SDS011;58753;49.440;11.126;2022-11-03T05:18:57;4.90;;;1.67;;
71095;SDS011;58753;49.440;11.126;2022-11-03T05:21:24;5.90;;;1.33;;
71095;SDS011;58753;49.440;11.126;2022-11-03T05:23:52;7.30;;;2.63;;
71095;SDS011;58753;49.440;11.126;2022-11-03T05:26:27;11.10;;;2.30;;
71095;SDS011;58753;49.440;11.126;2022-11-03T05:29:02;8.00;;;2.17;;
71095;SDS011;58753;49.440;11.126;2022-11-03T05:31:33;6.77;;;1.30;;
71095;SDS011;58753;49.440;11.126;2022-11-03T05:34:01;8.38;;;1.50;;
71095;SDS011;58753;49.440;11.126;2022-11-03T05:36:30;6.63;;;2.38;;
71095;SDS011;58753;49.440;11.126;2022-11-03T05:38:58;6.85;;;2.08;;
71095;SDS011;58753;49.440;11.126;2022-11-03T05:41:44;8.80;;;1.90;;
71095;SDS011;58753;49.440;11.126;2022-11-03T05:44:15;7.40;;;2.30;;
71095;SDS011;58753;49.440;11.126;2022-11-03T05:46:44;10.57;;;2.50;;
71095;SDS011;58753;49.440;11.126;2022-11-03T05:49:09;10.67;;;3.83;;
71095;SDS011;58753;49.440;11.126;2022-11-03T05:51:38;6.73;;;2.47;;
71095;SDS011;58753;49.440;11.126;2022-11-03T05:54:06;8.13;;;2.65;;
71095;SDS011;58753;49.440;11.126;2022-11-03T05:56:36;9.48;;;2.72;;
71095;SDS011;58753;49.440;11.126;2022-11-03T05:59:03;4.87;;;2.00;;
71095;SDS011;58753;49.440;11.126;2022-11-03T06:03:55;8.70;;;2.47;;
71095;SDS011;58753;49.440;11.126;2022-11-03T06:06:24;8.27;;;2.30;;
71095;SDS011;58753;49.440;11.126;2022-11-03T06:08:52;7.63;;;2.28;;
71095;SDS011;58753;49.440;11.126;2022-11-03T06:11:25;9.80;;;2.53;;
71095;SDS011;58753;49.440;11.126;2022-11-03T06:13:54;9.07;;;2.40;;
71095;SDS011;58753;49.440;11.126;2022-11-03T06:16:29;6.00;;;2.50;;
71095;SDS011;58753;49.440;11.126;2022-11-03T06:19:00;9.23;;;2.53;;
71095;SDS011;58753;49.440;11.126;2022-11-03T06:21:39;7.03;;;2.37;;
71095;SDS011;58753;49.440;11.126;2022-11-03T06:24:06;8.05;;;2.58;;
71095;SDS011;58753;49.440;11.126;2022-11-03T06:26:34;7.93;;;2.72;;
71095;SDS011;58753;49.440;11.126;2022-11-03T06:28:59;9.67;;;2.87;;
71095;SDS011;58753;49.440;11.126;2022-11-03T06:31:28;6.50;;;3.40;;
71095;SDS011;58753;49.440;11.126;2022-11-03T06:33:57;9.10;;;2.20;;
71095;SDS011;58753;49.440;11.126;2022-11-03T06:36:27;7.93;;;2.67;;
71095;SDS011;58753;49.440;11.126;2022-11-03T06:38:56;9.70;;;3.10;;
71095;SDS011;58753;49.440;11.126;2022-11-03T06:41:26;8.10;;;2.80;;
71095;SDS011;58753;49.440;11.126;2022-11-03T06:43:57;9.05;;;3.60;;
71095;SDS011;58753;49.440;11.126;2022-11-03T06:46:26;6.20;;;2.78;;
71095;SDS011;58753;49.440;11.126;2022-11-03T06:48:52;8.65;;;3.75;;
71095;SDS011;58753;49.440;11.126;2022-11-03T06:51:22;7.03;;;4.13;;
71095;SDS011;58753;49.440;11.126;2022-11-03T06:53:51;13.15;;;4.18;;
71095;SDS011;58753;49.440;11.126;2022-11-03T06:56:19;7.28;;;4.20;;
71095;SDS011;58753;49.440;11.126;2022-11-03T06:58:46;9.85;;;3.85;;
71095;SDS011;58753;49.440;11.126;2022-11-03T07:04:19;7.10;;;3.33;;
71095;SDS011;58753;49.440;11.126;2022-11-03T07:06:47;7.93;;;3.78;;
71095;SDS011;58753;49.440;11.126;2022-11-03T07:09:18;10.60;;;4.88;;
71095;SDS011;58753;49.440;11.126;2022-11-03T07:11:52;9.32;;;4.35;;
71095;SDS011;58753;49.440;11.126;2022-11-03T07:14:21;9.73;;;4.30;;
71095;SDS011;58753;49.440;11.126;2022-11-03T07:16:53;8.80;;;4.53;;
71095;SDS011;58753;49.440;11.126;2022-11-03T07:19:47;11.35;;;4.97;;
71095;SDS011;58753;49.440;11.126;2022-11-03T07:22:17;21.07;;;6.27;;
71095;SDS011;58753;49.440;11.126;2022-11-03T07:24:45;18.52;;;6.55;;
71095;SDS011;58753;49.440;11.126;2022-11-03T07:32:32;21.50;;;9.37;;
71095;SDS011;58753;49.440;11.126;2022-11-03T07:37:43;12.68;;;6.35;;
71095;SDS011;58753;49.440;11.126;2022-11-03T07:40:13;15.48;;;5.82;;
71095;SDS011;58753;49.440;11.126;2022-11-03T07:42:42;11.05;;;4.75;;
71095;SDS011;58753;49.440;11.126;2022-11-03T07:50:42;9.17;;;3.63;;
71095;SDS011;58753;49.440;11.126;2022-11-03T07:53:12;9.98;;;4.00;;
71095;SDS011;58753;49.440;11.126;2022-11-03T07:55:42;10.60;;;3.60;;
71095;SDS011;58753;49.440;11.126;2022-11-03T07:58:14;9.57;;;3.65;;
71095;SDS011;58753;49.440;11.126;2022-11-03T08:00:49;28.05;;;10.57;;
71095;SDS011;58753;49.440;11.126;2022-11-03T08:03:24;21.15;;;9.13;;
71095;SDS011;58753;49.440;11.126;2022-11-03T08:05:56;27.88;;;10.80;;
71095;SDS011;58753;49.440;11.126;2022-11-03T08:08:22;30.70;;;11.50;;
71095;SDS011;58753;49.440;11.126;2022-11-03T08:10:48;29.43;;;9.57;;
71095;SDS011;58753;49.440;11.126;2022-11-03T08:16:11;17.17;;;7.20;;
71095;SDS011;58753;49.440;11.126;2022-11-03T08:18:36;18.63;;;7.17;;
71095;SDS011;58753;49.440;11.126;2022-11-03T08:21:02;17.50;;;6.97;;
71095;SDS011;58753;49.440;11.126;2022-11-03T08:23:27;12.90;;;6.47;;
71095;SDS011;58753;49.440;11.126;2022-11-03T08:25:53;14.32;;;6.53;;
71095;SDS011;58753;49.440;11.126;2022-11-03T08:28:18;15.20;;;6.20;;
71095;SDS011;58753;49.440;11.126;2022-11-03T08:30:44;11.70;;;5.33;;
71095;SDS011;58753;49.440;11.126;2022-11-03T08:33:09;12.70;;;6.47;;
71095;SDS011;58753;49.440;11.126;2022-11-03T08:35:35;13.63;;;6.50;;
71095;SDS011;58753;49.440;11.126;2022-11-03T08:38:00;15.30;;;5.67;;
71095;SDS011;58753;49.440;11.126;2022-11-03T08:40:25;14.20;;;6.70;;
71095;SDS011;58753;49.440;11.126;2022-11-03T08:42:51;12.98;;;5.57;;
71095;SDS011;58753;49.440;11.126;2022-11-03T08:45:16;12.07;;;4.93;;
71095;SDS011;58753;49.440;11.126;2022-11-03T08:47:42;13.67;;;4.90;;
71095;SDS011;58753;49.440;11.126;2022-11-03T08:50:07;16.47;;;4.50;;
71095;SDS011;58753;49.440;11.126;2022-11-03T08:52:33;12.85;;;5.50;;
71095;SDS011;58753;49.440;11.126;2022-11-03T08:54:58;11.20;;;6.10;;
71095;SDS011;58753;49.440;11.126;2022-11-03T08:57:24;22.00;;;5.10;;
71095;SDS011;58753;49.440;11.126;2022-11-03T08:59:49;10.57;;;3.90;;
71095;SDS011;58753;49.440;11.126;2022-11-03T09:02:16;11.38;;;4.90;;
71095;SDS011;58753;49.440;11.126;2022-11-03T09:04:42;8.60;;;4.43;;
71095;SDS011;58753;49.440;11.126;2022-11-03T09:07:07;9.20;;;3.77;;
71095;SDS011;58753;49.440;11.126;2022-11-03T09:09:32;9.67;;;4.20;;
71095;SDS011;58753;49.440;11.126;2022-11-03T09:11:58;8.93;;;4.57;;
71095;SDS011;58753;49.440;11.126;2022-11-03T09:14:23;9.05;;;3.83;;
71095;SDS011;58753;49.440;11.126;2022-11-03T09:16:48;7.63;;;3.67;;
71095;SDS011;58753;49.440;11.126;2022-11-03T09:19:14;11.80;;;4.70;;
71095;SDS011;58753;49.440;11.126;2022-11-03T09:21:39;8.83;;;3.27;;
71095;SDS011;58753;49.440;11.126;2022-11-03T09:24:04;11.97;;;3.17;;
71095;SDS011;58753;49.440;11.126;2022-11-03T09:26:30;8.25;;;2.80;;
71095;SDS011;58753;49.440;11.126;2022-11-03T09:28:55;5.80;;;2.27;;
71095;SDS011;58753;49.440;11.126;2022-11-03T09:31:21;8.03;;;1.90;;
71095;SDS011;58753;49.440;11.126;2022-11-03T09:33:47;5.85;;;2.25;;
71095;SDS011;58753;49.440;11.126;2022-11-03T09:36:13;5.93;;;1.87;;
71095;SDS011;58753;49.440;11.126;2022-11-03T09:38:38;5.22;;;2.15;;
71095;SDS011;58753;49.440;11.126;2022-11-03T09:41:03;11.03;;;2.70;;
71095;SDS011;58753;49.440;11.126;2022-11-03T09:43:30;6.47;;;2.00;;
71095;SDS011;58753;49.440;11.126;2022-11-03T09:45:56;8.30;;;2.13;;
71095;SDS011;58753;49.440;11.126;2022-11-03T09:48:22;7.50;;;1.90;;
71095;SDS011;58753;49.440;11.126;2022-11-03T09:50:49;8.35;;;2.20;;
71095;SDS011;58753;49.440;11.126;2022-11-03T09:53:16;5.97;;;2.22;;
71095;SDS011;58753;49.440;11.126;2022-11-03T09:55:42;6.83;;;2.37;;
71095;SDS011;58753;49.440;11.126;2022-11-03T09:58:15;9.63;;;2.90;;
71095;SDS011;58753;49.440;11.126;2022-11-03T10:00:41;6.85;;;2.17;;
71095;SDS011;58753;49.440;11.126;2022-11-03T10:03:13;7.87;;;2.97;;
71095;SDS011;58753;49.440;11.126;2022-11-03T10:05:44;5.60;;;2.60;;
71095;SDS011;58753;49.440;11.126;2022-11-03T10:08:21;7.07;;;2.60;;
71095;SDS011;58753;49.440;11.126;2022-11-03T10:10:53;5.57;;;2.50;;
71095;SDS011;58753;49.440;11.126;2022-11-03T10:13:25;7.83;;;2.73;;
71095;SDS011;58753;49.440;11.126;2022-11-03T10:16:17;6.43;;;2.90;;
71095;SDS011;58753;49.440;11.126;2022-11-03T10:18:45;7.28;;;2.63;;
71095;SDS011;58753;49.440;11.126;2022-11-03T10:21:14;7.33;;;2.60;;
71095;SDS011;58753;49.440;11.126;2022-11-03T10:23:47;5.13;;;2.10;;
71095;SDS011;58753;49.440;11.126;2022-11-03T10:26:15;7.05;;;2.63;;
71095;SDS011;58753;49.440;11.126;2022-11-03T10:31:23;7.20;;;2.42;;
71095;SDS011;58753;49.440;11.126;2022-11-03T10:34:02;6.97;;;2.80;;
71095;SDS011;58753;49.440;11.126;2022-11-03T10:36:29;6.03;;;2.78;;
71095;SDS011;58753;49.440;11.126;2022-11-03T10:38:56;11.40;;;3.42;;
71095;SDS011;58753;49.440;11.126;2022-11-03T10:41:22;6.80;;;2.70;;
71095;SDS011;58753;49.440;11.126;2022-11-03T10:43:59;4.78;;;2.35;;
71095;SDS011;58753;49.440;11.126;2022-11-03T10:46:25;7.60;;;2.45;;
71095;SDS011;58753;49.440;11.126;2022-11-03T10:51:30;6.63;;;2.72;;
71095;SDS011;58753;49.440;11.126;2022-11-03T10:53:58;6.97;;;2.28;;
71095;SDS011;58753;49.440;11.126;2022-11-03T10:56:24;7.10;;;2.80;;
71095;SDS011;58753;49.440;11.126;2022-11-03T10:58:50;11.60;;;3.17;;
71095;SDS011;58753;49.440;11.126;2022-11-03T11:01:16;5.18;;;2.15;;
71095;SDS011;58753;49.440;11.126;2022-11-03T11:03:42;7.27;;;2.97;;
71095;SDS011;58753;49.440;11.126;2022-11-03T11:06:18;6.55;;;2.72;;
71095;SDS011;58753;49.440;11.126;2022-11-03T11:08:53;10.52;;;2.83;;
71095;SDS011;58753;49.440;11.126;2022-11-03T11:11:23;9.40;;;2.65;;
71095;SDS011;58753;49.440;11.126;2022-11-03T11:19:22;6.22;;;2.53;;
71095;SDS011;58753;49.440;11.126;2022-11-03T11:29:57;8.07;;;2.75;;
71095;SDS011;58753;49.440;11.126;2022-11-03T11:33:25;9.63;;;3.00;;
71095;SDS011;58753;49.440;11.126;2022-11-03T11:41:04;7.07;;;2.13;;
71095;SDS011;58753;49.440;11.126;2022-11-03T11:43:29;11.75;;;2.50;;
71095;SDS011;58753;49.440;11.126;2022-11-03T11:49:28;5.75;;;1.88;;
71095;SDS011;58753;49.440;11.126;2022-11-03T11:51:38;5.45;;;2.50;;
71095;SDS011;58753;49.440;11.126;2022-11-03T11:57:10;6.85;;;2.70;;
71095;SDS011;58753;49.440;11.126;2022-11-03T11:59:43;10.70;;;2.70;;
71095;SDS011;58753;49.440;11.126;2022-11-03T12:02:32;9.25;;;2.92;;
71095;SDS011;58753;49.440;11.126;2022-11-03T12:04:57;7.70;;;2.78;;
71095;SDS011;58753;49.440;11.126;2022-11-03T12:07:31;6.57;;;2.50;;
71095;SDS011;58753;49.440;11.126;2022-11-03T12:10:33;7.93;;;3.30;;
71095;SDS011;58753;49.440;11.126;2022-11-03T12:12:56;8.10;;;3.20;;
71095;SDS011;58753;49.440;11.126;2022-11-03T12:18:27;12.23;;;3.58;;
71095;SDS011;58753;49.440;11.126;2022-11-03T12:20:56;10.37;;;4.60;;
71095;SDS011;58753;49.440;11.126;2022-11-03T12:23:32;8.98;;;3.55;;
71095;SDS011;58753;49.440;11.126;2022-11-03T12:25:57;9.83;;;3.03;;
71095;SDS011;58753;49.440;11.126;2022-11-03T12:28:33;9.63;;;3.20;;
71095;SDS011;58753;49.440;11.126;2022-11-03T12:30:59;8.27;;;2.97;;
71095;SDS011;58753;49.440;11.126;2022-11-03T12:33:26;8.33;;;3.40;;
71095;SDS011;58753;49.440;11.126;2022-11-03T12:35:52;14.85;;;4.63;;
71095;SDS011;58753;49.440;11.126;2022-11-03T12:38:18;10.30;;;3.92;;
71095;SDS011;58753;49.440;11.126;2022-11-03T12:40:44;9.23;;;3.67;;
71095;SDS011;58753;49.440;11.126;2022-11-03T12:43:09;9.10;;;3.90;;
71095;SDS011;58753;49.440;11.126;2022-11-03T12:45:34;6.27;;;3.17;;
71095;SDS011;58753;49.440;11.126;2022-11-03T12:48:00;17.60;;;3.93;;
71095;SDS011;58753;49.440;11.126;2022-11-03T12:50:25;7.57;;;2.47;;
71095;SDS011;58753;49.440;11.126;2022-11-03T12:52:51;9.07;;;3.50;;
71095;SDS011;58753;49.440;11.126;2022-11-03T12:55:16;9.17;;;4.07;;
71095;SDS011;58753;49.440;11.126;2022-11-03T12:57:42;6.93;;;2.90;;
71095;SDS011;58753;49.440;11.126;2022-11-03T13:00:10;6.63;;;2.88;;
71095;SDS011;58753;49.440;11.126;2022-11-03T13:02:36;10.48;;;3.70;;
71095;SDS011;58753;49.440;11.126;2022-11-03T13:05:02;12.13;;;4.23;;
71095;SDS011;58753;49.440;11.126;2022-11-03T13:07:28;8.63;;;3.37;;
71095;SDS011;58753;49.440;11.126;2022-11-03T13:09:54;9.18;;;3.75;;
71095;SDS011;58753;49.440;11.126;2022-11-03T13:12:19;10.20;;;3.60;;
71095;SDS011;58753;49.440;11.126;2022-11-03T13:14:58;7.20;;;2.70;;
71095;SDS011;58753;49.440;11.126;2022-11-03T13:17:25;21.27;;;3.43;;
71095;SDS011;58753;49.440;11.126;2022-11-03T13:19:51;8.65;;;3.67;;
71095;SDS011;58753;49.440;11.126;2022-11-03T13:22:17;8.30;;;3.72;;
71095;SDS011;58753;49.440;11.126;2022-11-03T13:24:43;13.23;;;3.72;;
71095;SDS011;58753;49.440;11.126;2022-11-03T13:27:08;9.90;;;3.80;;
71095;SDS011;58753;49.440;11.126;2022-11-03T13:29:34;6.47;;;3.20;;
71095;SDS011;58753;49.440;11.126;2022-11-03T13:32:00;6.75;;;3.22;;
71095;SDS011;58753;49.440;11.126;2022-11-03T13:34:27;12.82;;;3.90;;
71095;SDS011;58753;49.440;11.126;2022-11-03T13:36:53;10.00;;;3.10;;
71095;SDS011;58753;49.440;11.126;2022-11-03T13:39:18;7.17;;;3.27;;
71095;SDS011;58753;49.440;11.126;2022-11-03T13:41:44;13.67;;;4.13;;
71095;SDS011;58753;49.440;11.126;2022-11-03T13:44:09;10.37;;;3.80;;
71095;SDS011;58753;49.440;11.126;2022-11-03T13:46:34;9.38;;;3.25;;
71095;SDS011;58753;49.440;11.126;2022-11-03T13:49:00;8.80;;;3.20;;
71095;SDS011;58753;49.440;11.126;2022-11-03T13:51:25;10.87;;;4.20;;
71095;SDS011;58753;49.440;11.126;2022-11-03T13:53:51;9.70;;;3.47;;
71095;SDS011;58753;49.440;11.126;2022-11-03T13:56:16;10.43;;;5.03;;
71095;SDS011;58753;49.440;11.126;2022-11-03T13:58:41;11.97;;;3.60;;
71095;SDS011;58753;49.440;11.126;2022-11-03T14:01:07;8.93;;;3.47;;
71095;SDS011;58753;49.440;11.126;2022-11-03T14:03:32;11.13;;;3.80;;
71095;SDS011;58753;49.440;11.126;2022-11-03T14:05:58;11.13;;;4.75;;
71095;SDS011;58753;49.440;11.126;2022-11-03T14:08:23;10.80;;;3.03;;
71095;SDS011;58753;49.440;11.126;2022-11-03T14:10:48;13.57;;;4.47;;
71095;SDS011;58753;49.440;11.126;2022-11-03T14:13:14;10.83;;;3.80;;
71095;SDS011;58753;49.440;11.126;2022-11-03T14:15:39;7.63;;;3.70;;
71095;SDS011;58753;49.440;11.126;2022-11-03T14:18:05;7.15;;;3.75;;
71095;SDS011;58753;49.440;11.126;2022-11-03T14:20:30;7.67;;;4.03;;
71095;SDS011;58753;49.440;11.126;2022-11-03T14:22:56;8.38;;;4.00;;
71095;SDS011;58753;49.440;11.126;2022-11-03T14:25:21;14.37;;;4.37;;
71095;SDS011;58753;49.440;11.126;2022-11-03T14:27:47;8.93;;;3.80;;
71095;SDS011;58753;49.440;11.126;2022-11-03T14:30:12;8.35;;;3.75;;
71095;SDS011;58753;49.440;11.126;2022-11-03T14:32:38;7.80;;;3.67;;
71095;SDS011;58753;49.440;11.126;2022-11-03T14:35:04;12.97;;;4.33;;
71095;SDS011;58753;49.440;11.126;2022-11-03T14:37:30;7.70;;;3.65;;
71095;SDS011;58753;49.440;11.126;2022-11-03T14:39:55;13.23;;;4.77;;
71095;SDS011;58753;49.440;11.126;2022-11-03T14:42:20;11.02;;;4.18;;
71095;SDS011;58753;49.440;11.126;2022-11-03T14:44:46;12.70;;;5.60;;
71095;SDS011;58753;49.440;11.126;2022-11-03T14:47:13;10.90;;;4.22;;
71095;SDS011;58753;49.440;11.126;2022-11-03T14:49:41;7.73;;;3.60;;
71095;SDS011;58753;49.440;11.126;2022-11-03T14:52:07;10.68;;;4.32;;
71095;SDS011;58753;49.440;11.126;2022-11-03T14:54:32;12.13;;;4.80;;
71095;SDS011;58753;49.440;11.126;2022-11-03T14:56:58;12.90;;;5.10;;
71095;SDS011;58753;49.440;11.126;2022-11-03T14:59:24;11.30;;;5.37;;
71095;SDS011;58753;49.440;11.126;2022-11-03T15:01:50;10.75;;;5.25;;
71095;SDS011;58753;49.440;11.126;2022-11-03T15:04:16;11.73;;;5.13;;
71095;SDS011;58753;49.440;11.126;2022-11-03T15:06:42;14.93;;;6.07;;
71095;SDS011;58753;49.440;11.126;2022-11-03T15:09:07;17.25;;;6.18;;
71095;SDS011;58753;49.440;11.126;2022-11-03T15:11:33;9.80;;;5.30;;
71095;SDS011;58753;49.440;11.126;2022-11-03T15:13:59;13.80;;;6.07;;
71095;SDS011;58753;49.440;11.126;2022-11-03T15:16:26;13.13;;;5.18;;
71095;SDS011;58753;49.440;11.126;2022-11-03T15:18:51;10.00;;;5.80;;
71095;SDS011;58753;49.440;11.126;2022-11-03T15:21:17;11.10;;;5.27;;
71095;SDS011;58753;49.440;11.126;2022-11-03T15:23:42;11.30;;;6.10;;
71095;SDS011;58753;49.440;11.126;2022-11-03T15:26:08;9.23;;;5.17;;
71095;SDS011;58753;49.440;11.126;2022-11-03T15:28:33;15.27;;;6.67;;
71095;SDS011;58753;49.440;11.126;2022-11-03T15:30:59;11.40;;;5.88;;
71095;SDS011;58753;49.440;11.126;2022-11-03T15:33:24;10.57;;;5.10;;
71095;SDS011;58753;49.440;11.126;2022-11-03T15:35:50;10.70;;;5.45;;
71095;SDS011;58753;49.440;11.126;2022-11-03T15:38:16;13.50;;;6.20;;
71095;SDS011;58753;49.440;11.126;2022-11-03T15:40:41;12.93;;;5.77;;
71095;SDS011;58753;49.440;11.126;2022-11-03T15:43:07;16.33;;;8.15;;
71095;SDS011;58753;49.440;11.126;2022-11-03T15:45:33;17.17;;;6.67;;